sensor_id;sensor_type;location;lat;lon;timestamp;temperature;humidity
27922;DHT22;15261;50.356;10.340;2023-04-06T00:01:10;0.10;94.60
27922;DHT22;15261;50.356;10.340;2023-04-06T00:03:36;0.10;94.20
27922;DHT22;15261;50.356;10.340;2023-04-06T00:06:02;0.00;94.20
27922;DHT22;15261;50.356;10.340;2023-04-06T00:08:27;0.00;94.40
27922;DHT22;15261;50.356;10.340;2023-04-06T00:10:54;0.10;94.20
27922;DHT22;15261;50.356;10.340;2023-04-06T00:13:19;0.00;94.20
27922;DHT22;15261;50.356;10.340;2023-04-06T00:15:45;-0.10;94.20
27922;DHT22;15261;50.356;10.340;2023-04-06T00:18:11;-0.10;94.20
27922;DHT22;15261;50.356;10.340;2023-04-06T00:20:36;0.00;94.10
27922;DHT22;15261;50.356;10.340;2023-04-06T00:23:02;-0.10;94.20
27922;DHT22;15261;50.356;10.340;2023-04-06T00:25:27;-0.10;94.50
27922;DHT22;15261;50.356;10.340;2023-04-06T00:27:53;0.00;94.70
27922;DHT22;15261;50.356;10.340;2023-04-06T00:30:19;0.10;94.70
27922;DHT22;15261;50.356;10.340;2023-04-06T00:32:44;0.10;94.50
27922;DHT22;15261;50.356;10.340;2023-04-06T00:35:10;0.00;94.50
27922;DHT22;15261;50.356;10.340;2023-04-06T00:37:36;0.00;94.70
27922;DHT22;15261;50.356;10.340;2023-04-06T00:40:02;0.00;94.90
27922;DHT22;15261;50.356;10.340;2023-04-06T00:42:28;0.10;95.20
27922;DHT22;15261;50.356;10.340;2023-04-06T00:44:58;0.10;94.60
27922;DHT22;15261;50.356;10.340;2023-04-06T00:47:25;0.00;94.20
27922;DHT22;15261;50.356;10.340;2023-04-06T00:49:51;0.10;94.10
27922;DHT22;15261;50.356;10.340;2023-04-06T00:52:17;0.00;94.20
27922;DHT22;15261;50.356;10.340;2023-04-06T00:54:43;-0.10;94.40
27922;DHT22;15261;50.356;10.340;2023-04-06T00:57:10;-0.30;94.60
27922;DHT22;15261;50.356;10.340;2023-04-06T00:59:36;-0.30;95.00
27922;DHT22;15261;50.356;10.340;2023-04-06T02:45:46;-1.10;97.50
27922;DHT22;15261;50.356;10.340;2023-04-06T02:48:41;-1.10;97.60
27922;DHT22;15261;50.356;10.340;2023-04-06T03:17:50;-1.20;97.50
27922;DHT22;15261;50.356;10.340;2023-04-06T03:20:15;-1.30;97.50
27922;DHT22;15261;50.356;10.340;2023-04-06T03:22:41;-1.40;97.60
27922;DHT22;15261;50.356;10.340;2023-04-06T03:25:07;-1.50;98.00
27922;DHT22;15261;50.356;10.340;2023-04-06T03:27:33;-1.50;98.00
27922;DHT22;15261;50.356;10.340;2023-04-06T03:29:58;-1.50;98.00
27922;DHT22;15261;50.356;10.340;2023-04-06T03:32:24;-1.60;98.00
27922;DHT22;15261;50.356;10.340;2023-04-06T03:34:50;-1.60;98.30
27922;DHT22;15261;50.356;10.340;2023-04-06T03:37:15;-1.60;98.30
27922;DHT22;15261;50.356;10.340;2023-04-06T03:39:41;-1.50;98.20
27922;DHT22;15261;50.356;10.340;2023-04-06T03:42:07;-1.50;98.00
27922;DHT22;15261;50.356;10.340;2023-04-06T03:44:32;-1.60;98.10
27922;DHT22;15261;50.356;10.340;2023-04-06T03:46:58;-1.60;98.10
27922;DHT22;15261;50.356;10.340;2023-04-06T03:49:24;-1.70;98.20
27922;DHT22;15261;50.356;10.340;2023-04-06T03:51:49;-1.80;98.40
27922;DHT22;15261;50.356;10.340;2023-04-06T03:54:15;-1.80;98.80
27922;DHT22;15261;50.356;10.340;2023-04-06T03:56:41;-1.80;99.00
27922;DHT22;15261;50.356;10.340;2023-04-06T03:59:06;-1.80;99.10
27922;DHT22;15261;50.356;10.340;2023-04-06T04:01:32;-1.70;99.10
27922;DHT22;15261;50.356;10.340;2023-04-06T04:03:58;-1.70;98.70
27922;DHT22;15261;50.356;10.340;2023-04-06T04:06:23;-1.70;98.40
27922;DHT22;15261;50.356;10.340;2023-04-06T04:08:50;-1.70;98.50
27922;DHT22;15261;50.356;10.340;2023-04-06T04:11:16;-1.60;98.60
27922;DHT22;15261;50.356;10.340;2023-04-06T04:13:42;-1.60;98.70
27922;DHT22;15261;50.356;10.340;2023-04-06T04:19:29;-1.60;98.50
27922;DHT22;15261;50.356;10.340;2023-04-06T04:21:56;-1.60;98.60
27922;DHT22;15261;50.356;10.340;2023-04-06T04:24:21;-1.60;98.70
27922;DHT22;15261;50.356;10.340;2023-04-06T04:26:47;-1.70;98.70
27922;DHT22;15261;50.356;10.340;2023-04-06T04:29:28;-1.60;98.90
27922;DHT22;15261;50.356;10.340;2023-04-06T04:31:54;-1.60;98.90
27922;DHT22;15261;50.356;10.340;2023-04-06T04:34:20;-1.80;98.80
27922;DHT22;15261;50.356;10.340;2023-04-06T04:36:46;-1.80;98.80
27922;DHT22;15261;50.356;10.340;2023-04-06T04:39:12;-1.90;99.00
27922;DHT22;15261;50.356;10.340;2023-04-06T04:41:40;-1.80;99.20
27922;DHT22;15261;50.356;10.340;2023-04-06T04:44:06;-1.80;99.10
27922;DHT22;15261;50.356;10.340;2023-04-06T04:46:32;-1.80;98.90
27922;DHT22;15261;50.356;10.340;2023-04-06T04:48:58;-1.80;98.70
27922;DHT22;15261;50.356;10.340;2023-04-06T04:51:23;-1.70;98.70
27922;DHT22;15261;50.356;10.340;2023-04-06T04:53:50;-1.60;98.80
27922;DHT22;15261;50.356;10.340;2023-04-06T04:56:15;-1.60;98.80
27922;DHT22;15261;50.356;10.340;2023-04-06T04:58:47;-1.70;98.30
27922;DHT22;15261;50.356;10.340;2023-04-06T05:01:21;-1.70;98.30
27922;DHT22;15261;50.356;10.340;2023-04-06T05:03:53;-1.60;98.20
27922;DHT22;15261;50.356;10.340;2023-04-06T05:06:40;-1.60;98.30
27922;DHT22;15261;50.356;10.340;2023-04-06T05:12:26;-1.60;98.80
27922;DHT22;15261;50.356;10.340;2023-04-06T05:15:19;-1.60;98.50
27922;DHT22;15261;50.356;10.340;2023-04-06T05:17:55;-1.50;98.60
27922;DHT22;15261;50.356;10.340;2023-04-06T05:20:22;-1.40;98.50
27922;DHT22;15261;50.356;10.340;2023-04-06T05:23:10;-1.40;98.30
27922;DHT22;15261;50.356;10.340;2023-04-06T05:42:35;-1.00;98.40
27922;DHT22;15261;50.356;10.340;2023-04-06T06:04:40;-0.20;97.60
27922;DHT22;15261;50.356;10.340;2023-04-06T07:20:53;2.40;96.30
27922;DHT22;15261;50.356;10.340;2023-04-06T07:31:30;3.30;95.80
27922;DHT22;15261;50.356;10.340;2023-04-06T07:54:54;4.30;92.90
27922;DHT22;15261;50.356;10.340;2023-04-06T08:07:59;4.90;92.30
27922;DHT22;15261;50.356;10.340;2023-04-06T08:38:57;6.20;85.10
27922;DHT22;15261;50.356;10.340;2023-04-06T09:20:32;7.90;76.30
27922;DHT22;15261;50.356;10.340;2023-04-06T09:30:24;8.10;77.10
27922;DHT22;15261;50.356;10.340;2023-04-06T09:33:58;8.30;77.00
27922;DHT22;15261;50.356;10.340;2023-04-06T09:53:57;8.80;75.90
27922;DHT22;15261;50.356;10.340;2023-04-06T09:56:31;9.00;75.60
27922;DHT22;15261;50.356;10.340;2023-04-06T09:59:02;9.00;74.10
27922;DHT22;15261;50.356;10.340;2023-04-06T10:01:32;9.00;71.70
27922;DHT22;15261;50.356;10.340;2023-04-06T10:04:21;9.00;71.90
27922;DHT22;15261;50.356;10.340;2023-04-06T10:06:51;9.10;74.30
27922;DHT22;15261;50.356;10.340;2023-04-06T10:09:18;9.20;71.20
27922;DHT22;15261;50.356;10.340;2023-04-06T10:11:49;9.20;71.60
27922;DHT22;15261;50.356;10.340;2023-04-06T10:14:15;9.30;70.70
27922;DHT22;15261;50.356;10.340;2023-04-06T10:16:42;9.30;69.80
27922;DHT22;15261;50.356;10.340;2023-04-06T10:19:21;9.40;72.00
27922;DHT22;15261;50.356;10.340;2023-04-06T10:21:51;9.40;70.40
27922;DHT22;15261;50.356;10.340;2023-04-06T10:24:18;9.50;71.60
27922;DHT22;15261;50.356;10.340;2023-04-06T10:26:57;9.50;68.30
27922;DHT22;15261;50.356;10.340;2023-04-06T10:29:23;9.50;68.60
27922;DHT22;15261;50.356;10.340;2023-04-06T10:31:49;9.40;67.70
27922;DHT22;15261;50.356;10.340;2023-04-06T10:34:15;9.40;69.60
27922;DHT22;15261;50.356;10.340;2023-04-06T10:36:41;9.50;71.40
27922;DHT22;15261;50.356;10.340;2023-04-06T10:39:06;9.60;70.30
27922;DHT22;15261;50.356;10.340;2023-04-06T10:41:40;9.70;68.80
27922;DHT22;15261;50.356;10.340;2023-04-06T10:44:06;9.80;66.40
27922;DHT22;15261;50.356;10.340;2023-04-06T10:46:33;9.90;65.00
27922;DHT22;15261;50.356;10.340;2023-04-06T10:52:20;10.00;65.10
27922;DHT22;15261;50.356;10.340;2023-04-06T10:54:46;10.00;64.90
27922;DHT22;15261;50.356;10.340;2023-04-06T10:57:12;10.10;68.90
27922;DHT22;15261;50.356;10.340;2023-04-06T10:59:42;10.20;66.40
27922;DHT22;15261;50.356;10.340;2023-04-06T11:02:08;10.10;66.00
27922;DHT22;15261;50.356;10.340;2023-04-06T11:04:34;10.30;64.40
27922;DHT22;15261;50.356;10.340;2023-04-06T11:07:00;10.30;63.10
27922;DHT22;15261;50.356;10.340;2023-04-06T11:09:27;10.40;67.70
27922;DHT22;15261;50.356;10.340;2023-04-06T11:12:24;10.50;66.10
27922;DHT22;15261;50.356;10.340;2023-04-06T11:14:57;10.60;67.20
27922;DHT22;15261;50.356;10.340;2023-04-06T11:17:30;10.60;64.90
27922;DHT22;15261;50.356;10.340;2023-04-06T11:19:57;10.60;62.20
27922;DHT22;15261;50.356;10.340;2023-04-06T11:22:24;10.60;63.20
27922;DHT22;15261;50.356;10.340;2023-04-06T11:24:49;10.60;63.10
27922;DHT22;15261;50.356;10.340;2023-04-06T11:27:15;10.60;64.30
27922;DHT22;15261;50.356;10.340;2023-04-06T11:29:42;10.70;65.00
27922;DHT22;15261;50.356;10.340;2023-04-06T11:32:07;10.70;64.60
27922;DHT22;15261;50.356;10.340;2023-04-06T11:34:38;10.60;61.80
27922;DHT22;15261;50.356;10.340;2023-04-06T11:37:10;10.60;62.50
27922;DHT22;15261;50.356;10.340;2023-04-06T11:42:08;10.50;63.20
27922;DHT22;15261;50.356;10.340;2023-04-06T11:47:08;10.20;63.50
27922;DHT22;15261;50.356;10.340;2023-04-06T11:49:38;10.10;63.50
27922;DHT22;15261;50.356;10.340;2023-04-06T11:52:15;9.90;63.40
27922;DHT22;15261;50.356;10.340;2023-04-06T11:54:40;10.10;62.30
27922;DHT22;15261;50.356;10.340;2023-04-06T11:57:08;10.40;61.70
27922;DHT22;15261;50.356;10.340;2023-04-06T11:59:34;10.60;61.60
27922;DHT22;15261;50.356;10.340;2023-04-06T12:02:01;10.80;62.00
27922;DHT22;15261;50.356;10.340;2023-04-06T12:08:05;11.10;61.80
27922;DHT22;15261;50.356;10.340;2023-04-06T12:10:31;11.20;62.00
27922;DHT22;15261;50.356;10.340;2023-04-06T12:12:57;11.30;60.70
27922;DHT22;15261;50.356;10.340;2023-04-06T12:15:22;11.30;58.30
27922;DHT22;15261;50.356;10.340;2023-04-06T12:17:48;11.30;57.20
27922;DHT22;15261;50.356;10.340;2023-04-06T12:20:15;11.40;59.10
27922;DHT22;15261;50.356;10.340;2023-04-06T12:22:40;11.70;61.20
27922;DHT22;15261;50.356;10.340;2023-04-06T12:25:06;11.70;57.10
27922;DHT22;15261;50.356;10.340;2023-04-06T12:27:32;11.50;57.90
27922;DHT22;15261;50.356;10.340;2023-04-06T12:29:58;11.30;58.50
27922;DHT22;15261;50.356;10.340;2023-04-06T12:32:24;11.30;58.90
27922;DHT22;15261;50.356;10.340;2023-04-06T12:34:51;11.40;60.70
27922;DHT22;15261;50.356;10.340;2023-04-06T12:37:17;11.40;60.50
27922;DHT22;15261;50.356;10.340;2023-04-06T12:39:45;11.40;58.90
27922;DHT22;15261;50.356;10.340;2023-04-06T12:42:11;11.50;60.60
27922;DHT22;15261;50.356;10.340;2023-04-06T12:44:38;11.60;58.10
27922;DHT22;15261;50.356;10.340;2023-04-06T12:47:03;11.60;58.20
27922;DHT22;15261;50.356;10.340;2023-04-06T12:49:30;11.70;57.30
27922;DHT22;15261;50.356;10.340;2023-04-06T12:51:55;11.70;57.50
27922;DHT22;15261;50.356;10.340;2023-04-06T12:54:21;11.70;56.70
27922;DHT22;15261;50.356;10.340;2023-04-06T12:56:46;11.60;56.90
27922;DHT22;15261;50.356;10.340;2023-04-06T12:59:12;11.60;58.80
27922;DHT22;15261;50.356;10.340;2023-04-06T13:01:38;11.80;58.30
27922;DHT22;15261;50.356;10.340;2023-04-06T13:04:03;11.80;57.00
27922;DHT22;15261;50.356;10.340;2023-04-06T13:06:29;11.80;57.40
27922;DHT22;15261;50.356;10.340;2023-04-06T13:08:55;11.70;56.10
27922;DHT22;15261;50.356;10.340;2023-04-06T13:11:21;11.80;59.00
27922;DHT22;15261;50.356;10.340;2023-04-06T13:13:49;11.90;58.30
27922;DHT22;15261;50.356;10.340;2023-04-06T13:16:14;11.90;56.50
27922;DHT22;15261;50.356;10.340;2023-04-06T13:18:40;11.90;56.90
27922;DHT22;15261;50.356;10.340;2023-04-06T13:21:07;12.00;57.20
27922;DHT22;15261;50.356;10.340;2023-04-06T13:23:33;12.00;55.70
27922;DHT22;15261;50.356;10.340;2023-04-06T13:26:04;12.00;54.60
27922;DHT22;15261;50.356;10.340;2023-04-06T13:28:31;12.00;55.30
27922;DHT22;15261;50.356;10.340;2023-04-06T13:30:59;12.10;55.30
27922;DHT22;15261;50.356;10.340;2023-04-06T13:33:25;12.10;55.30
27922;DHT22;15261;50.356;10.340;2023-04-06T13:35:51;12.10;55.10
27922;DHT22;15261;50.356;10.340;2023-04-06T13:38:17;12.10;56.40
27922;DHT22;15261;50.356;10.340;2023-04-06T13:40:43;12.00;54.90
27922;DHT22;15261;50.356;10.340;2023-04-06T13:43:08;12.00;55.00
27922;DHT22;15261;50.356;10.340;2023-04-06T13:45:34;11.90;55.10
27922;DHT22;15261;50.356;10.340;2023-04-06T13:48:00;11.80;55.70
27922;DHT22;15261;50.356;10.340;2023-04-06T13:50:28;11.80;56.50
27922;DHT22;15261;50.356;10.340;2023-04-06T13:52:54;11.50;56.50
27922;DHT22;15261;50.356;10.340;2023-04-06T13:55:20;11.50;56.50
27922;DHT22;15261;50.356;10.340;2023-04-06T13:57:45;11.60;55.00
27922;DHT22;15261;50.356;10.340;2023-04-06T14:00:11;11.60;55.50
27922;DHT22;15261;50.356;10.340;2023-04-06T14:02:39;11.70;55.70
27922;DHT22;15261;50.356;10.340;2023-04-06T14:05:05;11.60;55.20
27922;DHT22;15261;50.356;10.340;2023-04-06T14:07:33;11.60;55.20
27922;DHT22;15261;50.356;10.340;2023-04-06T14:09:59;11.60;55.60
27922;DHT22;15261;50.356;10.340;2023-04-06T14:12:25;11.60;56.00
27922;DHT22;15261;50.356;10.340;2023-04-06T14:14:52;11.70;57.00
27922;DHT22;15261;50.356;10.340;2023-04-06T14:17:18;11.70;55.90
27922;DHT22;15261;50.356;10.340;2023-04-06T14:20:16;11.60;55.40
27922;DHT22;15261;50.356;10.340;2023-04-06T14:22:42;11.70;57.20
27922;DHT22;15261;50.356;10.340;2023-04-06T14:25:11;11.70;57.00
27922;DHT22;15261;50.356;10.340;2023-04-06T14:27:41;11.70;56.80
27922;DHT22;15261;50.356;10.340;2023-04-06T14:30:10;11.70;57.50
27922;DHT22;15261;50.356;10.340;2023-04-06T14:32:37;11.80;58.50
27922;DHT22;15261;50.356;10.340;2023-04-06T14:35:04;11.70;57.40
27922;DHT22;15261;50.356;10.340;2023-04-06T14:37:29;11.70;57.30
27922;DHT22;15261;50.356;10.340;2023-04-06T14:39:55;11.70;56.30
27922;DHT22;15261;50.356;10.340;2023-04-06T14:42:24;11.60;57.70
27922;DHT22;15261;50.356;10.340;2023-04-06T14:44:49;11.60;57.50
27922;DHT22;15261;50.356;10.340;2023-04-06T14:47:15;11.60;58.30
27922;DHT22;15261;50.356;10.340;2023-04-06T14:49:46;11.60;57.00
27922;DHT22;15261;50.356;10.340;2023-04-06T14:55:30;11.60;57.70
27922;DHT22;15261;50.356;10.340;2023-04-06T14:57:56;11.50;56.20
27922;DHT22;15261;50.356;10.340;2023-04-06T15:00:22;11.40;56.20
27922;DHT22;15261;50.356;10.340;2023-04-06T15:02:54;11.30;56.10
27922;DHT22;15261;50.356;10.340;2023-04-06T15:05:20;11.20;56.40
27922;DHT22;15261;50.356;10.340;2023-04-06T15:07:45;11.10;57.80
27922;DHT22;15261;50.356;10.340;2023-04-06T15:10:11;11.20;58.30
27922;DHT22;15261;50.356;10.340;2023-04-06T15:12:37;11.20;58.70
27922;DHT22;15261;50.356;10.340;2023-04-06T15:15:03;11.20;58.80
27922;DHT22;15261;50.356;10.340;2023-04-06T15:17:30;11.10;57.90
27922;DHT22;15261;50.356;10.340;2023-04-06T15:19:55;11.20;59.20
27922;DHT22;15261;50.356;10.340;2023-04-06T15:22:21;11.10;59.10
27922;DHT22;15261;50.356;10.340;2023-04-06T15:24:46;11.10;60.00
27922;DHT22;15261;50.356;10.340;2023-04-06T15:27:12;11.10;57.70
27922;DHT22;15261;50.356;10.340;2023-04-06T15:29:37;11.10;57.90
27922;DHT22;15261;50.356;10.340;2023-04-06T15:32:03;11.00;57.80
27922;DHT22;15261;50.356;10.340;2023-04-06T15:37:48;10.80;58.20
27922;DHT22;15261;50.356;10.340;2023-04-06T15:40:14;10.80;59.70
27922;DHT22;15261;50.356;10.340;2023-04-06T15:42:41;10.70;59.20
27922;DHT22;15261;50.356;10.340;2023-04-06T15:45:09;10.70;59.50
27922;DHT22;15261;50.356;10.340;2023-04-06T15:47:36;10.70;59.40
27922;DHT22;15261;50.356;10.340;2023-04-06T15:50:02;10.70;58.50
27922;DHT22;15261;50.356;10.340;2023-04-06T15:52:27;10.60;57.30
27922;DHT22;15261;50.356;10.340;2023-04-06T15:54:53;10.60;58.80
27922;DHT22;15261;50.356;10.340;2023-04-06T15:57:19;10.50;61.10
27922;DHT22;15261;50.356;10.340;2023-04-06T15:59:44;10.50;59.90
27922;DHT22;15261;50.356;10.340;2023-04-06T16:02:10;10.50;60.10
27922;DHT22;15261;50.356;10.340;2023-04-06T16:04:35;10.40;60.50
27922;DHT22;15261;50.356;10.340;2023-04-06T16:07:01;10.30;61.30
27922;DHT22;15261;50.356;10.340;2023-04-06T16:09:26;10.30;60.90
27922;DHT22;15261;50.356;10.340;2023-04-06T16:11:52;10.20;61.20
27922;DHT22;15261;50.356;10.340;2023-04-06T16:14:17;10.20;62.50
27922;DHT22;15261;50.356;10.340;2023-04-06T16:16:43;10.20;63.70
27922;DHT22;15261;50.356;10.340;2023-04-06T16:19:09;10.20;63.20
27922;DHT22;15261;50.356;10.340;2023-04-06T16:24:56;10.20;62.50
27922;DHT22;15261;50.356;10.340;2023-04-06T16:27:22;10.30;62.30
27922;DHT22;15261;50.356;10.340;2023-04-06T16:29:47;10.30;62.70
27922;DHT22;15261;50.356;10.340;2023-04-06T16:32:13;10.40;63.40
27922;DHT22;15261;50.356;10.340;2023-04-06T16:34:38;10.40;63.50
27922;DHT22;15261;50.356;10.340;2023-04-06T16:37:04;10.30;62.60
27922;DHT22;15261;50.356;10.340;2023-04-06T16:39:30;10.30;63.40
27922;DHT22;15261;50.356;10.340;2023-04-06T16:41:56;10.20;62.80
27922;DHT22;15261;50.356;10.340;2023-04-06T16:44:21;10.10;63.00
27922;DHT22;15261;50.356;10.340;2023-04-06T16:50:10;10.00;63.40
27922;DHT22;15261;50.356;10.340;2023-04-06T16:52:35;9.90;65.70
27922;DHT22;15261;50.356;10.340;2023-04-06T16:55:01;9.80;64.70
27922;DHT22;15261;50.356;10.340;2023-04-06T16:57:40;9.70;65.00
27922;DHT22;15261;50.356;10.340;2023-04-06T17:00:07;9.70;65.60
27922;DHT22;15261;50.356;10.340;2023-04-06T17:02:47;9.60;66.10
27922;DHT22;15261;50.356;10.340;2023-04-06T17:05:13;9.60;66.90
27922;DHT22;15261;50.356;10.340;2023-04-06T17:07:38;9.50;67.50
27922;DHT22;15261;50.356;10.340;2023-04-06T17:13:26;9.40;67.00
27922;DHT22;15261;50.356;10.340;2023-04-06T17:15:52;9.30;68.10
27922;DHT22;15261;50.356;10.340;2023-04-06T17:21:39;9.00;70.10
27922;DHT22;15261;50.356;10.340;2023-04-06T17:24:06;8.80;70.70
27922;DHT22;15261;50.356;10.340;2023-04-06T17:26:33;8.70;71.50
27922;DHT22;15261;50.356;10.340;2023-04-06T17:28:59;8.60;71.60
27922;DHT22;15261;50.356;10.340;2023-04-06T17:31:36;8.50;71.80
27922;DHT22;15261;50.356;10.340;2023-04-06T17:37:36;8.30;71.50
27922;DHT22;15261;50.356;10.340;2023-04-06T17:40:05;8.10;71.20
27922;DHT22;15261;50.356;10.340;2023-04-06T17:42:30;8.10;71.60
27922;DHT22;15261;50.356;10.340;2023-04-06T17:45:20;8.00;72.10
27922;DHT22;15261;50.356;10.340;2023-04-06T17:47:46;7.90;70.90
27922;DHT22;15261;50.356;10.340;2023-04-06T17:50:11;7.80;71.20
27922;DHT22;15261;50.356;10.340;2023-04-06T17:52:37;7.60;72.60
27922;DHT22;15261;50.356;10.340;2023-04-06T17:55:03;7.50;74.90
27922;DHT22;15261;50.356;10.340;2023-04-06T17:57:32;7.50;75.90
27922;DHT22;15261;50.356;10.340;2023-04-06T18:00:05;7.40;76.70
27922;DHT22;15261;50.356;10.340;2023-04-06T18:02:31;7.30;76.80
27922;DHT22;15261;50.356;10.340;2023-04-06T18:05:17;7.20;77.00
27922;DHT22;15261;50.356;10.340;2023-04-06T18:07:42;7.10;76.40
27922;DHT22;15261;50.356;10.340;2023-04-06T18:10:08;7.10;76.60
27922;DHT22;15261;50.356;10.340;2023-04-06T18:12:34;7.00;75.70
27922;DHT22;15261;50.356;10.340;2023-04-06T18:15:00;6.90;77.30
27922;DHT22;15261;50.356;10.340;2023-04-06T18:17:25;6.80;78.30
27922;DHT22;15261;50.356;10.340;2023-04-06T18:19:51;6.70;78.60
27922;DHT22;15261;50.356;10.340;2023-04-06T18:22:16;6.60;78.80
27922;DHT22;15261;50.356;10.340;2023-04-06T18:24:43;6.60;78.90
27922;DHT22;15261;50.356;10.340;2023-04-06T18:27:09;6.50;79.20
27922;DHT22;15261;50.356;10.340;2023-04-06T18:29:35;6.50;79.20
27922;DHT22;15261;50.356;10.340;2023-04-06T18:32:13;6.40;79.40
27922;DHT22;15261;50.356;10.340;2023-04-06T18:34:38;6.40;80.00
27922;DHT22;15261;50.356;10.340;2023-04-06T18:37:04;6.30;80.00
27922;DHT22;15261;50.356;10.340;2023-04-06T18:39:30;6.30;79.80
27922;DHT22;15261;50.356;10.340;2023-04-06T18:41:55;6.30;79.80
27922;DHT22;15261;50.356;10.340;2023-04-06T18:44:21;6.30;80.20
27922;DHT22;15261;50.356;10.340;2023-04-06T18:46:46;6.20;80.40
27922;DHT22;15261;50.356;10.340;2023-04-06T18:49:12;6.30;79.80
27922;DHT22;15261;50.356;10.340;2023-04-06T18:51:48;6.30;80.20
27922;DHT22;15261;50.356;10.340;2023-04-06T18:54:20;6.20;80.70
27922;DHT22;15261;50.356;10.340;2023-04-06T18:56:46;6.10;80.90
27922;DHT22;15261;50.356;10.340;2023-04-06T18:59:12;6.10;81.30
27922;DHT22;15261;50.356;10.340;2023-04-06T19:01:38;6.00;81.90
27922;DHT22;15261;50.356;10.340;2023-04-06T19:04:07;6.00;82.00
27922;DHT22;15261;50.356;10.340;2023-04-06T19:06:33;6.00;82.50
27922;DHT22;15261;50.356;10.340;2023-04-06T19:08:59;5.90;82.50
27922;DHT22;15261;50.356;10.340;2023-04-06T19:11:25;6.00;81.20
27922;DHT22;15261;50.356;10.340;2023-04-06T19:13:55;5.90;81.10
27922;DHT22;15261;50.356;10.340;2023-04-06T19:16:23;5.90;81.30
27922;DHT22;15261;50.356;10.340;2023-04-06T19:19:04;5.90;81.30
27922;DHT22;15261;50.356;10.340;2023-04-06T19:21:37;5.80;81.30
27922;DHT22;15261;50.356;10.340;2023-04-06T19:24:03;5.90;81.70
27922;DHT22;15261;50.356;10.340;2023-04-06T19:26:29;5.90;81.60
27922;DHT22;15261;50.356;10.340;2023-04-06T19:28:56;5.80;81.90
27922;DHT22;15261;50.356;10.340;2023-04-06T19:31:31;5.70;82.30
27922;DHT22;15261;50.356;10.340;2023-04-06T19:33:57;5.70;82.50
27922;DHT22;15261;50.356;10.340;2023-04-06T19:36:23;5.60;82.50
27922;DHT22;15261;50.356;10.340;2023-04-06T19:38:49;5.60;81.90
27922;DHT22;15261;50.356;10.340;2023-04-06T19:41:18;5.60;82.30
27922;DHT22;15261;50.356;10.340;2023-04-06T19:43:46;5.60;82.60
27922;DHT22;15261;50.356;10.340;2023-04-06T19:46:11;5.70;83.20
27922;DHT22;15261;50.356;10.340;2023-04-06T19:48:39;5.70;83.30
27922;DHT22;15261;50.356;10.340;2023-04-06T19:51:04;5.70;83.40
27922;DHT22;15261;50.356;10.340;2023-04-06T19:53:30;5.70;82.30
27922;DHT22;15261;50.356;10.340;2023-04-06T19:55:56;5.70;82.00
27922;DHT22;15261;50.356;10.340;2023-04-06T19:58:21;5.80;81.10
27922;DHT22;15261;50.356;10.340;2023-04-06T20:00:48;5.80;82.00
27922;DHT22;15261;50.356;10.340;2023-04-06T20:03:13;5.80;80.90
27922;DHT22;15261;50.356;10.340;2023-04-06T20:05:39;5.90;81.20
27922;DHT22;15261;50.356;10.340;2023-04-06T20:08:05;6.00;80.60
27922;DHT22;15261;50.356;10.340;2023-04-06T20:10:30;6.00;80.60
27922;DHT22;15261;50.356;10.340;2023-04-06T20:12:57;6.10;79.90
27922;DHT22;15261;50.356;10.340;2023-04-06T20:15:23;6.10;80.20
27922;DHT22;15261;50.356;10.340;2023-04-06T20:17:49;6.10;80.10
27922;DHT22;15261;50.356;10.340;2023-04-06T20:20:15;6.10;80.20
27922;DHT22;15261;50.356;10.340;2023-04-06T20:22:40;6.00;80.20
27922;DHT22;15261;50.356;10.340;2023-04-06T20:25:06;6.00;81.20
27922;DHT22;15261;50.356;10.340;2023-04-06T20:27:32;6.00;81.50
27922;DHT22;15261;50.356;10.340;2023-04-06T20:29:58;6.00;83.50
27922;DHT22;15261;50.356;10.340;2023-04-06T20:32:23;6.00;84.70
27922;DHT22;15261;50.356;10.340;2023-04-06T20:34:49;5.90;85.60
27922;DHT22;15261;50.356;10.340;2023-04-06T20:37:15;5.80;87.10
27922;DHT22;15261;50.356;10.340;2023-04-06T20:39:42;5.70;87.50
27922;DHT22;15261;50.356;10.340;2023-04-06T20:42:07;5.60;88.40
27922;DHT22;15261;50.356;10.340;2023-04-06T20:44:33;5.50;89.20
27922;DHT22;15261;50.356;10.340;2023-04-06T20:47:00;5.40;89.20
27922;DHT22;15261;50.356;10.340;2023-04-06T20:49:26;5.30;89.70
27922;DHT22;15261;50.356;10.340;2023-04-06T20:51:51;5.10;89.80
27922;DHT22;15261;50.356;10.340;2023-04-06T20:54:17;5.10;90.10
27922;DHT22;15261;50.356;10.340;2023-04-06T20:56:43;5.00;90.40
27922;DHT22;15261;50.356;10.340;2023-04-06T20:59:09;4.90;90.50
27922;DHT22;15261;50.356;10.340;2023-04-06T21:01:34;4.80;90.70
27922;DHT22;15261;50.356;10.340;2023-04-06T21:04:00;4.80;90.90
27922;DHT22;15261;50.356;10.340;2023-04-06T21:06:28;4.70;91.00
27922;DHT22;15261;50.356;10.340;2023-04-06T21:08:54;4.60;91.20
27922;DHT22;15261;50.356;10.340;2023-04-06T21:11:19;4.50;91.30
27922;DHT22;15261;50.356;10.340;2023-04-06T21:14:02;4.50;91.40
27922;DHT22;15261;50.356;10.340;2023-04-06T21:16:28;4.40;91.60
27922;DHT22;15261;50.356;10.340;2023-04-06T21:18:54;4.40;92.00
27922;DHT22;15261;50.356;10.340;2023-04-06T21:21:19;4.20;92.20
27922;DHT22;15261;50.356;10.340;2023-04-06T21:23:45;4.10;92.50
27922;DHT22;15261;50.356;10.340;2023-04-06T21:26:11;4.10;92.30
27922;DHT22;15261;50.356;10.340;2023-04-06T21:28:37;4.10;92.20
27922;DHT22;15261;50.356;10.340;2023-04-06T21:34:24;4.00;92.20
27922;DHT22;15261;50.356;10.340;2023-04-06T21:36:50;4.00;92.30
27922;DHT22;15261;50.356;10.340;2023-04-06T21:39:15;3.90;92.40
27922;DHT22;15261;50.356;10.340;2023-04-06T21:41:41;3.80;92.60
27922;DHT22;15261;50.356;10.340;2023-04-06T21:44:07;3.70;93.00
27922;DHT22;15261;50.356;10.340;2023-04-06T21:46:32;3.60;93.10
27922;DHT22;15261;50.356;10.340;2023-04-06T21:49:25;3.60;93.30
27922;DHT22;15261;50.356;10.340;2023-04-06T21:51:50;3.50;92.80
27922;DHT22;15261;50.356;10.340;2023-04-06T21:54:16;3.50;92.80
27922;DHT22;15261;50.356;10.340;2023-04-06T21:56:41;3.50;92.90
27922;DHT22;15261;50.356;10.340;2023-04-06T21:59:15;3.40;92.70
27922;DHT22;15261;50.356;10.340;2023-04-06T22:01:41;3.40;92.80
27922;DHT22;15261;50.356;10.340;2023-04-06T22:04:06;3.30;92.80
27922;DHT22;15261;50.356;10.340;2023-04-06T22:06:32;3.30;93.00
27922;DHT22;15261;50.356;10.340;2023-04-06T22:09:22;3.30;93.30
27922;DHT22;15261;50.356;10.340;2023-04-06T22:11:48;3.30;93.70
27922;DHT22;15261;50.356;10.340;2023-04-06T22:14:19;3.20;93.80
27922;DHT22;15261;50.356;10.340;2023-04-06T22:16:45;3.30;93.80
27922;DHT22;15261;50.356;10.340;2023-04-06T22:19:10;3.30;93.70
27922;DHT22;15261;50.356;10.340;2023-04-06T22:21:39;3.30;93.60
27922;DHT22;15261;50.356;10.340;2023-04-06T22:24:05;3.30;93.60